sensor_id;sensor_type;location;lat;lon;timestamp;P1;durP1;ratioP1;P2;durP2;ratioP2
57778;SDS011;43608;49.486;9.640;2022-12-24T00:00:23;7.97;;;2.25;;
57778;SDS011;43608;49.486;9.640;2022-12-24T00:00:56;6.93;;;2.20;;
57778;SDS011;43608;49.486;9.640;2022-12-24T00:01:27;5.88;;;2.10;;
57778;SDS011;43608;49.486;9.640;2022-12-24T00:01:57;6.85;;;2.30;;
57778;SDS011;43608;49.486;9.640;2022-12-24T00:02:28;7.32;;;2.33;;
57778;SDS011;43608;49.486;9.640;2022-12-24T00:02:58;7.05;;;2.30;;
57778;SDS011;43608;49.486;9.640;2022-12-24T00:03:29;5.55;;;2.10;;
57778;SDS011;43608;49.486;9.640;2022-12-24T00:03:59;10.02;;;2.35;;
57778;SDS011;43608;49.486;9.640;2022-12-24T00:04:30;8.40;;;2.50;;
57778;SDS011;43608;49.486;9.640;2022-12-24T00:05:00;6.35;;;2.60;;
57778;SDS011;43608;49.486;9.640;2022-12-24T00:05:31;5.95;;;2.15;;
57778;SDS011;43608;49.486;9.640;2022-12-24T00:06:04;4.68;;;2.13;;
57778;SDS011;43608;49.486;9.640;2022-12-24T00:06:36;6.15;;;1.90;;
57778;SDS011;43608;49.486;9.640;2022-12-24T00:07:06;6.10;;;2.25;;
57778;SDS011;43608;49.486;9.640;2022-12-24T00:07:37;6.97;;;2.40;;
57778;SDS011;43608;49.486;9.640;2022-12-24T00:08:07;6.00;;;2.10;;
57778;SDS011;43608;49.486;9.640;2022-12-24T00:08:37;5.70;;;2.10;;
57778;SDS011;43608;49.486;9.640;2022-12-24T00:09:10;7.13;;;2.00;;
57778;SDS011;43608;49.486;9.640;2022-12-24T00:09:40;6.22;;;2.08;;
57778;SDS011;43608;49.486;9.640;2022-12-24T00:10:11;6.82;;;2.33;;
57778;SDS011;43608;49.486;9.640;2022-12-24T00:10:41;8.30;;;2.40;;
57778;SDS011;43608;49.486;9.640;2022-12-24T00:11:12;6.25;;;2.00;;
57778;SDS011;43608;49.486;9.640;2022-12-24T00:11:44;6.53;;;2.10;;
57778;SDS011;43608;49.486;9.640;2022-12-24T00:12:14;7.95;;;2.42;;
57778;SDS011;43608;49.486;9.640;2022-12-24T00:12:44;5.10;;;2.30;;
57778;SDS011;43608;49.486;9.640;2022-12-24T00:13:15;7.88;;;2.40;;
57778;SDS011;43608;49.486;9.640;2022-12-24T00:13:46;6.43;;;2.20;;
57778;SDS011;43608;49.486;9.640;2022-12-24T00:14:17;6.10;;;2.40;;
57778;SDS011;43608;49.486;9.640;2022-12-24T00:14:47;7.05;;;2.30;;
57778;SDS011;43608;49.486;9.640;2022-12-24T00:15:18;5.88;;;2.35;;
57778;SDS011;43608;49.486;9.640;2022-12-24T00:15:48;6.43;;;2.35;;
57778;SDS011;43608;49.486;9.640;2022-12-24T00:16:19;7.40;;;2.50;;
57778;SDS011;43608;49.486;9.640;2022-12-24T00:16:49;7.32;;;2.40;;
57778;SDS011;43608;49.486;9.640;2022-12-24T00:17:20;7.00;;;2.33;;
57778;SDS011;43608;49.486;9.640;2022-12-24T00:17:50;7.72;;;2.30;;
57778;SDS011;43608;49.486;9.640;2022-12-24T00:18:20;8.25;;;2.50;;
57778;SDS011;43608;49.486;9.640;2022-12-24T00:18:51;7.57;;;2.92;;
57778;SDS011;43608;49.486;9.640;2022-12-24T00:19:22;10.98;;;4.00;;
57778;SDS011;43608;49.486;9.640;2022-12-24T00:19:52;8.70;;;3.70;;
57778;SDS011;43608;49.486;9.640;2022-12-24T00:20:23;10.00;;;3.88;;
57778;SDS011;43608;49.486;9.640;2022-12-24T00:20:54;12.77;;;5.03;;
57778;SDS011;43608;49.486;9.640;2022-12-24T00:21:24;8.80;;;3.90;;
57778;SDS011;43608;49.486;9.640;2022-12-24T00:21:54;8.52;;;3.50;;
57778;SDS011;43608;49.486;9.640;2022-12-24T00:22:25;7.80;;;3.17;;
57778;SDS011;43608;49.486;9.640;2022-12-24T00:22:55;8.27;;;2.83;;
57778;SDS011;43608;49.486;9.640;2022-12-24T00:23:25;6.97;;;2.58;;
57778;SDS011;43608;49.486;9.640;2022-12-24T00:23:56;6.88;;;2.58;;
57778;SDS011;43608;49.486;9.640;2022-12-24T00:24:26;7.35;;;2.25;;
57778;SDS011;43608;49.486;9.640;2022-12-24T00:24:57;5.82;;;2.20;;
57778;SDS011;43608;49.486;9.640;2022-12-24T00:25:27;11.98;;;4.47;;
57778;SDS011;43608;49.486;9.640;2022-12-24T00:25:57;17.00;;;6.45;;
57778;SDS011;43608;49.486;9.640;2022-12-24T00:26:28;10.40;;;4.75;;
57778;SDS011;43608;49.486;9.640;2022-12-24T00:26:58;10.90;;;4.43;;
57778;SDS011;43608;49.486;9.640;2022-12-24T00:27:28;10.55;;;3.78;;
57778;SDS011;43608;49.486;9.640;2022-12-24T00:27:59;9.43;;;3.80;;
57778;SDS011;43608;49.486;9.640;2022-12-24T00:28:29;11.63;;;3.47;;
57778;SDS011;43608;49.486;9.640;2022-12-24T00:29:00;10.15;;;3.20;;
57778;SDS011;43608;49.486;9.640;2022-12-24T00:29:30;7.13;;;2.65;;
57778;SDS011;43608;49.486;9.640;2022-12-24T00:30:01;7.53;;;2.60;;
57778;SDS011;43608;49.486;9.640;2022-12-24T00:30:32;6.47;;;2.38;;
57778;SDS011;43608;49.486;9.640;2022-12-24T00:31:09;8.60;;;2.50;;
57778;SDS011;43608;49.486;9.640;2022-12-24T00:31:44;6.10;;;2.38;;
57778;SDS011;43608;49.486;9.640;2022-12-24T00:32:14;5.97;;;2.40;;
57778;SDS011;43608;49.486;9.640;2022-12-24T00:32:44;8.50;;;2.70;;
57778;SDS011;43608;49.486;9.640;2022-12-24T00:33:15;6.85;;;2.63;;
57778;SDS011;43608;49.486;9.640;2022-12-24T00:33:45;7.07;;;2.80;;
57778;SDS011;43608;49.486;9.640;2022-12-24T00:34:16;9.63;;;2.72;;
57778;SDS011;43608;49.486;9.640;2022-12-24T00:34:46;9.13;;;2.90;;
57778;SDS011;43608;49.486;9.640;2022-12-24T00:35:16;10.40;;;2.88;;
57778;SDS011;43608;49.486;9.640;2022-12-24T00:35:48;7.57;;;2.58;;
57778;SDS011;43608;49.486;9.640;2022-12-24T00:36:20;8.98;;;2.55;;
57778;SDS011;43608;49.486;9.640;2022-12-24T00:36:51;7.15;;;2.60;;
57778;SDS011;43608;49.486;9.640;2022-12-24T00:37:21;8.43;;;2.65;;
57778;SDS011;43608;49.486;9.640;2022-12-24T00:37:51;12.55;;;3.30;;
57778;SDS011;43608;49.486;9.640;2022-12-24T00:38:22;7.95;;;2.40;;
57778;SDS011;43608;49.486;9.640;2022-12-24T00:38:52;7.72;;;2.70;;
57778;SDS011;43608;49.486;9.640;2022-12-24T00:39:22;5.68;;;2.50;;
57778;SDS011;43608;49.486;9.640;2022-12-24T00:39:53;8.52;;;2.53;;
57778;SDS011;43608;49.486;9.640;2022-12-24T00:40:23;6.75;;;2.58;;
57778;SDS011;43608;49.486;9.640;2022-12-24T00:41:00;7.82;;;2.72;;
57778;SDS011;43608;49.486;9.640;2022-12-24T00:41:31;11.48;;;2.83;;
57778;SDS011;43608;49.486;9.640;2022-12-24T00:42:01;7.70;;;2.72;;
57778;SDS011;43608;49.486;9.640;2022-12-24T00:42:32;5.05;;;2.10;;
57778;SDS011;43608;49.486;9.640;2022-12-24T00:43:02;7.18;;;2.50;;
57778;SDS011;43608;49.486;9.640;2022-12-24T00:43:33;8.30;;;2.40;;
57778;SDS011;43608;49.486;9.640;2022-12-24T00:44:04;5.63;;;2.30;;
57778;SDS011;43608;49.486;9.640;2022-12-24T00:44:35;8.45;;;2.47;;
57778;SDS011;43608;49.486;9.640;2022-12-24T00:45:06;8.20;;;2.67;;
57778;SDS011;43608;49.486;9.640;2022-12-24T00:45:37;5.47;;;2.30;;
57778;SDS011;43608;49.486;9.640;2022-12-24T00:46:07;9.10;;;2.65;;
57778;SDS011;43608;49.486;9.640;2022-12-24T00:46:38;8.00;;;2.47;;
57778;SDS011;43608;49.486;9.640;2022-12-24T00:47:10;6.28;;;2.20;;
57778;SDS011;43608;49.486;9.640;2022-12-24T00:47:40;9.02;;;2.40;;
57778;SDS011;43608;49.486;9.640;2022-12-24T00:48:11;6.65;;;2.60;;
57778;SDS011;43608;49.486;9.640;2022-12-24T00:48:41;7.07;;;2.30;;
57778;SDS011;43608;49.486;9.640;2022-12-24T00:49:12;7.28;;;2.22;;
57778;SDS011;43608;49.486;9.640;2022-12-24T00:49:42;6.03;;;2.03;;
57778;SDS011;43608;49.486;9.640;2022-12-24T00:50:13;7.90;;;2.53;;
57778;SDS011;43608;49.486;9.640;2022-12-24T00:50:43;5.95;;;2.30;;
57778;SDS011;43608;49.486;9.640;2022-12-24T00:51:14;7.82;;;2.50;;
57778;SDS011;43608;49.486;9.640;2022-12-24T00:51:44;8.80;;;2.75;;
57778;SDS011;43608;49.486;9.640;2022-12-24T00:52:15;8.77;;;2.60;;
57778;SDS011;43608;49.486;9.640;2022-12-24T00:52:45;7.75;;;2.17;;
57778;SDS011;43608;49.486;9.640;2022-12-24T00:53:16;6.25;;;2.38;;
57778;SDS011;43608;49.486;9.640;2022-12-24T00:53:47;7.53;;;2.60;;
57778;SDS011;43608;49.486;9.640;2022-12-24T00:54:18;8.00;;;2.58;;
57778;SDS011;43608;49.486;9.640;2022-12-24T00:54:49;10.07;;;2.83;;
57778;SDS011;43608;49.486;9.640;2022-12-24T00:55:19;6.60;;;2.45;;
57778;SDS011;43608;49.486;9.640;2022-12-24T00:55:49;6.32;;;2.10;;
57778;SDS011;43608;49.486;9.640;2022-12-24T00:56:20;8.45;;;2.20;;
57778;SDS011;43608;49.486;9.640;2022-12-24T00:56:51;8.13;;;2.53;;
57778;SDS011;43608;49.486;9.640;2022-12-24T00:57:21;7.82;;;2.55;;
57778;SDS011;43608;49.486;9.640;2022-12-24T00:57:51;7.80;;;2.17;;
57778;SDS011;43608;49.486;9.640;2022-12-24T00:58:22;6.68;;;2.38;;
57778;SDS011;43608;49.486;9.640;2022-12-24T00:58:52;5.63;;;2.20;;
57778;SDS011;43608;49.486;9.640;2022-12-24T00:59:23;6.78;;;2.33;;
57778;SDS011;43608;49.486;9.640;2022-12-24T00:59:53;6.90;;;2.38;;
57778;SDS011;43608;49.486;9.640;2022-12-24T01:00:23;8.95;;;2.28;;
57778;SDS011;43608;49.486;9.640;2022-12-24T01:00:54;7.32;;;2.45;;
57778;SDS011;43608;49.486;9.640;2022-12-24T01:01:24;7.82;;;2.40;;
57778;SDS011;43608;49.486;9.640;2022-12-24T01:01:55;6.63;;;2.38;;
57778;SDS011;43608;49.486;9.640;2022-12-24T01:02:25;9.38;;;2.63;;
57778;SDS011;43608;49.486;9.640;2022-12-24T01:02:56;8.35;;;2.40;;
57778;SDS011;43608;49.486;9.640;2022-12-24T01:03:26;9.23;;;2.97;;
57778;SDS011;43608;49.486;9.640;2022-12-24T01:04:05;7.90;;;2.45;;
57778;SDS011;43608;49.486;9.640;2022-12-24T01:04:54;8.55;;;2.60;;
57778;SDS011;43608;49.486;9.640;2022-12-24T01:05:40;9.23;;;2.40;;
57778;SDS011;43608;49.486;9.640;2022-12-24T01:06:12;7.93;;;2.63;;
57778;SDS011;43608;49.486;9.640;2022-12-24T01:06:44;7.65;;;2.47;;
57778;SDS011;43608;49.486;9.640;2022-12-24T01:07:15;9.77;;;2.80;;
57778;SDS011;43608;49.486;9.640;2022-12-24T01:07:45;6.47;;;2.45;;
57778;SDS011;43608;49.486;9.640;2022-12-24T01:08:16;7.43;;;2.42;;
57778;SDS011;43608;49.486;9.640;2022-12-24T01:08:50;7.82;;;2.35;;
57778;SDS011;43608;49.486;9.640;2022-12-24T01:09:20;6.10;;;2.25;;
57778;SDS011;43608;49.486;9.640;2022-12-24T01:09:51;7.18;;;2.42;;
57778;SDS011;43608;49.486;9.640;2022-12-24T01:10:21;6.82;;;2.38;;
57778;SDS011;43608;49.486;9.640;2022-12-24T01:10:51;8.13;;;2.30;;
57778;SDS011;43608;49.486;9.640;2022-12-24T01:11:22;8.07;;;2.30;;
57778;SDS011;43608;49.486;9.640;2022-12-24T01:11:52;7.78;;;2.42;;
57778;SDS011;43608;49.486;9.640;2022-12-24T01:12:23;8.48;;;2.78;;
57778;SDS011;43608;49.486;9.640;2022-12-24T01:12:54;8.10;;;2.50;;
57778;SDS011;43608;49.486;9.640;2022-12-24T01:13:24;11.25;;;2.60;;
57778;SDS011;43608;49.486;9.640;2022-12-24T01:13:55;9.23;;;2.33;;
57778;SDS011;43608;49.486;9.640;2022-12-24T01:14:25;7.88;;;2.35;;
57778;SDS011;43608;49.486;9.640;2022-12-24T01:14:55;8.15;;;2.15;;
57778;SDS011;43608;49.486;9.640;2022-12-24T01:15:26;5.00;;;2.22;;
57778;SDS011;43608;49.486;9.640;2022-12-24T01:15:56;8.20;;;2.35;;
57778;SDS011;43608;49.486;9.640;2022-12-24T01:16:27;5.20;;;2.10;;
57778;SDS011;43608;49.486;9.640;2022-12-24T01:16:57;6.10;;;2.30;;
57778;SDS011;43608;49.486;9.640;2022-12-24T01:17:29;8.82;;;2.47;;
57778;SDS011;43608;49.486;9.640;2022-12-24T01:18:01;6.63;;;2.40;;
57778;SDS011;43608;49.486;9.640;2022-12-24T01:18:32;7.72;;;2.40;;
57778;SDS011;43608;49.486;9.640;2022-12-24T01:19:02;5.07;;;2.15;;
57778;SDS011;43608;49.486;9.640;2022-12-24T01:19:33;10.07;;;2.53;;
57778;SDS011;43608;49.486;9.640;2022-12-24T01:20:04;9.73;;;2.67;;
57778;SDS011;43608;49.486;9.640;2022-12-24T01:20:36;8.63;;;2.65;;
57778;SDS011;43608;49.486;9.640;2022-12-24T01:21:06;7.80;;;2.47;;
57778;SDS011;43608;49.486;9.640;2022-12-24T01:21:37;8.65;;;2.80;;
57778;SDS011;43608;49.486;9.640;2022-12-24T01:22:07;7.00;;;2.38;;
57778;SDS011;43608;49.486;9.640;2022-12-24T01:22:38;6.35;;;2.40;;
57778;SDS011;43608;49.486;9.640;2022-12-24T01:23:08;6.93;;;2.30;;
57778;SDS011;43608;49.486;9.640;2022-12-24T01:23:39;7.30;;;2.50;;
57778;SDS011;43608;49.486;9.640;2022-12-24T01:24:12;8.77;;;2.55;;
57778;SDS011;43608;49.486;9.640;2022-12-24T01:24:44;7.43;;;2.40;;
57778;SDS011;43608;49.486;9.640;2022-12-24T01:25:14;6.80;;;2.55;;
57778;SDS011;43608;49.486;9.640;2022-12-24T01:25:44;6.40;;;2.40;;
57778;SDS011;43608;49.486;9.640;2022-12-24T01:26:15;5.63;;;2.20;;
57778;SDS011;43608;49.486;9.640;2022-12-24T01:26:45;5.70;;;2.30;;
57778;SDS011;43608;49.486;9.640;2022-12-24T01:27:16;6.75;;;2.30;;
57778;SDS011;43608;49.486;9.640;2022-12-24T01:27:46;4.97;;;2.20;;
57778;SDS011;43608;49.486;9.640;2022-12-24T01:28:17;7.63;;;2.63;;
57778;SDS011;43608;49.486;9.640;2022-12-24T01:28:48;6.78;;;2.42;;
57778;SDS011;43608;49.486;9.640;2022-12-24T01:29:18;6.05;;;2.20;;
57778;SDS011;43608;49.486;9.640;2022-12-24T01:29:48;6.63;;;2.58;;
57778;SDS011;43608;49.486;9.640;2022-12-24T01:30:19;7.78;;;2.38;;
57778;SDS011;43608;49.486;9.640;2022-12-24T01:30:49;5.70;;;2.13;;
57778;SDS011;43608;49.486;9.640;2022-12-24T01:31:19;6.35;;;2.22;;
57778;SDS011;43608;49.486;9.640;2022-12-24T01:31:50;5.78;;;2.20;;
57778;SDS011;43608;49.486;9.640;2022-12-24T01:32:20;6.40;;;2.28;;
57778;SDS011;43608;49.486;9.640;2022-12-24T01:32:51;6.70;;;2.17;;
57778;SDS011;43608;49.486;9.640;2022-12-24T01:33:21;7.07;;;2.15;;
57778;SDS011;43608;49.486;9.640;2022-12-24T01:33:51;8.32;;;2.50;;
57778;SDS011;43608;49.486;9.640;2022-12-24T01:34:22;5.75;;;2.20;;
57778;SDS011;43608;49.486;9.640;2022-12-24T01:34:52;5.38;;;2.17;;
57778;SDS011;43608;49.486;9.640;2022-12-24T01:35:22;7.63;;;2.50;;
57778;SDS011;43608;49.486;9.640;2022-12-24T01:35:53;6.00;;;2.00;;
57778;SDS011;43608;49.486;9.640;2022-12-24T01:36:23;6.35;;;1.90;;
57778;SDS011;43608;49.486;9.640;2022-12-24T01:36:53;6.85;;;1.90;;
57778;SDS011;43608;49.486;9.640;2022-12-24T01:37:24;5.50;;;2.45;;
57778;SDS011;43608;49.486;9.640;2022-12-24T01:37:54;5.53;;;2.03;;
57778;SDS011;43608;49.486;9.640;2022-12-24T01:38:25;5.55;;;2.17;;
57778;SDS011;43608;49.486;9.640;2022-12-24T01:38:55;5.88;;;2.28;;
57778;SDS011;43608;49.486;9.640;2022-12-24T01:39:25;6.00;;;2.10;;
57778;SDS011;43608;49.486;9.640;2022-12-24T01:39:56;7.70;;;2.30;;
57778;SDS011;43608;49.486;9.640;2022-12-24T01:40:46;6.60;;;2.42;;
57778;SDS011;43608;49.486;9.640;2022-12-24T01:41:35;9.55;;;2.60;;
57778;SDS011;43608;49.486;9.640;2022-12-24T01:42:24;5.03;;;2.10;;
57778;SDS011;43608;49.486;9.640;2022-12-24T01:43:17;5.95;;;2.20;;
57778;SDS011;43608;49.486;9.640;2022-12-24T01:43:54;7.07;;;2.03;;
57778;SDS011;43608;49.486;9.640;2022-12-24T01:44:26;5.80;;;2.10;;
57778;SDS011;43608;49.486;9.640;2022-12-24T01:46:11;4.55;;;1.88;;
57778;SDS011;43608;49.486;9.640;2022-12-24T01:46:43;7.07;;;2.20;;
57778;SDS011;43608;49.486;9.640;2022-12-24T01:47:50;4.50;;;2.03;;
57778;SDS011;43608;49.486;9.640;2022-12-24T01:49:27;6.10;;;2.17;;
57778;SDS011;43608;49.486;9.640;2022-12-24T01:49:58;7.88;;;2.25;;
57778;SDS011;43608;49.486;9.640;2022-12-24T01:50:32;7.45;;;2.22;;
57778;SDS011;43608;49.486;9.640;2022-12-24T01:51:56;5.88;;;2.00;;
57778;SDS011;43608;49.486;9.640;2022-12-24T01:52:31;7.93;;;2.00;;
57778;SDS011;43608;49.486;9.640;2022-12-24T01:53:04;6.28;;;2.38;;
57778;SDS011;43608;49.486;9.640;2022-12-24T01:53:37;4.53;;;2.00;;
57778;SDS011;43608;49.486;9.640;2022-12-24T01:55:03;5.70;;;2.03;;
57778;SDS011;43608;49.486;9.640;2022-12-24T01:55:35;5.13;;;1.85;;
57778;SDS011;43608;49.486;9.640;2022-12-24T01:56:06;4.30;;;2.05;;
57778;SDS011;43608;49.486;9.640;2022-12-24T01:56:40;5.60;;;2.20;;
57778;SDS011;43608;49.486;9.640;2022-12-24T01:57:22;4.80;;;1.90;;
57778;SDS011;43608;49.486;9.640;2022-12-24T01:57:57;4.20;;;2.10;;
57778;SDS011;43608;49.486;9.640;2022-12-24T01:58:29;6.40;;;2.45;;
57778;SDS011;43608;49.486;9.640;2022-12-24T01:59:07;5.55;;;2.20;;
57778;SDS011;43608;49.486;9.640;2022-12-24T01:59:41;5.13;;;2.08;;
57778;SDS011;43608;49.486;9.640;2022-12-24T02:00:14;4.57;;;1.80;;
57778;SDS011;43608;49.486;9.640;2022-12-24T02:00:45;5.22;;;2.03;;
57778;SDS011;43608;49.486;9.640;2022-12-24T02:01:16;7.15;;;2.50;;
57778;SDS011;43608;49.486;9.640;2022-12-24T02:01:47;6.32;;;2.10;;
57778;SDS011;43608;49.486;9.640;2022-12-24T02:02:19;5.80;;;2.13;;
57778;SDS011;43608;49.486;9.640;2022-12-24T02:02:50;6.13;;;2.50;;
57778;SDS011;43608;49.486;9.640;2022-12-24T02:03:22;6.25;;;2.20;;
57778;SDS011;43608;49.486;9.640;2022-12-24T02:03:53;4.97;;;1.88;;
57778;SDS011;43608;49.486;9.640;2022-12-24T02:05:23;3.45;;;1.90;;
57778;SDS011;43608;49.486;9.640;2022-12-24T02:06:00;3.08;;;1.85;;
57778;SDS011;43608;49.486;9.640;2022-12-24T02:06:30;7.07;;;2.20;;
57778;SDS011;43608;49.486;9.640;2022-12-24T02:07:01;6.05;;;2.17;;
57778;SDS011;43608;49.486;9.640;2022-12-24T02:07:31;5.95;;;1.88;;
57778;SDS011;43608;49.486;9.640;2022-12-24T02:08:03;6.72;;;2.40;;
57778;SDS011;43608;49.486;9.640;2022-12-24T02:08:34;5.97;;;2.30;;
57778;SDS011;43608;49.486;9.640;2022-12-24T02:09:11;6.95;;;2.33;;
57778;SDS011;43608;49.486;9.640;2022-12-24T02:09:41;8.27;;;2.47;;
57778;SDS011;43608;49.486;9.640;2022-12-24T02:10:12;5.55;;;2.13;;
57778;SDS011;43608;49.486;9.640;2022-12-24T02:10:44;6.57;;;2.22;;
57778;SDS011;43608;49.486;9.640;2022-12-24T02:11:16;5.55;;;2.00;;
57778;SDS011;43608;49.486;9.640;2022-12-24T02:11:48;7.43;;;2.10;;
57778;SDS011;43608;49.486;9.640;2022-12-24T02:12:19;4.90;;;1.90;;
57778;SDS011;43608;49.486;9.640;2022-12-24T02:12:49;4.43;;;2.00;;
57778;SDS011;43608;49.486;9.640;2022-12-24T02:13:21;5.90;;;2.03;;
57778;SDS011;43608;49.486;9.640;2022-12-24T02:13:52;8.75;;;2.15;;
57778;SDS011;43608;49.486;9.640;2022-12-24T02:14:27;5.30;;;1.92;;
57778;SDS011;43608;49.486;9.640;2022-12-24T02:15:01;5.93;;;2.08;;
57778;SDS011;43608;49.486;9.640;2022-12-24T02:15:36;4.60;;;1.98;;
57778;SDS011;43608;49.486;9.640;2022-12-24T02:16:33;6.43;;;2.10;;
57778;SDS011;43608;49.486;9.640;2022-12-24T02:17:21;7.88;;;2.30;;
57778;SDS011;43608;49.486;9.640;2022-12-24T02:18:06;6.70;;;2.10;;
57778;SDS011;43608;49.486;9.640;2022-12-24T02:19:33;4.53;;;1.98;;
57778;SDS011;43608;49.486;9.640;2022-12-24T02:30:17;5.80;;;1.90;;
57778;SDS011;43608;49.486;9.640;2022-12-24T02:30:51;5.97;;;2.10;;
57778;SDS011;43608;49.486;9.640;2022-12-24T02:33:30;6.35;;;2.15;;
57778;SDS011;43608;49.486;9.640;2022-12-24T02:34:18;5.63;;;2.13;;
57778;SDS011;43608;49.486;9.640;2022-12-24T02:36:12;5.53;;;1.90;;
57778;SDS011;43608;49.486;9.640;2022-12-24T02:36:29;6.72;;;2.00;;
57778;SDS011;43608;49.486;9.640;2022-12-24T02:37:14;4.43;;;2.00;;
57778;SDS011;43608;49.486;9.640;2022-12-24T02:37:47;8.30;;;2.40;;
57778;SDS011;43608;49.486;9.640;2022-12-24T02:39:10;5.63;;;1.92;;
57778;SDS011;43608;49.486;9.640;2022-12-24T02:39:54;6.45;;;2.17;;
57778;SDS011;43608;49.486;9.640;2022-12-24T02:40:32;5.70;;;2.00;;
57778;SDS011;43608;49.486;9.640;2022-12-24T02:41:42;5.80;;;2.20;;
57778;SDS011;43608;49.486;9.640;2022-12-24T02:42:28;4.85;;;1.65;;
57778;SDS011;43608;49.486;9.640;2022-12-24T02:43:12;7.03;;;2.50;;
57778;SDS011;43608;49.486;9.640;2022-12-24T02:43:48;4.53;;;1.65;;
57778;SDS011;43608;49.486;9.640;2022-12-24T02:44:21;7.75;;;1.85;;
57778;SDS011;43608;49.486;9.640;2022-12-24T02:45:00;4.63;;;2.00;;
57778;SDS011;43608;49.486;9.640;2022-12-24T02:45:34;6.57;;;2.28;;
57778;SDS011;43608;49.486;9.640;2022-12-24T02:46:10;4.15;;;1.88;;
57778;SDS011;43608;49.486;9.640;2022-12-24T02:46:46;5.65;;;2.08;;
57778;SDS011;43608;49.486;9.640;2022-12-24T02:47:17;8.02;;;2.35;;
57778;SDS011;43608;49.486;9.640;2022-12-24T02:47:50;7.47;;;2.08;;
57778;SDS011;43608;49.486;9.640;2022-12-24T02:48:22;7.35;;;2.33;;
57778;SDS011;43608;49.486;9.640;2022-12-24T02:48:54;6.75;;;2.30;;
57778;SDS011;43608;49.486;9.640;2022-12-24T02:49:25;7.40;;;2.28;;
57778;SDS011;43608;49.486;9.640;2022-12-24T02:49:56;7.05;;;2.10;;
57778;SDS011;43608;49.486;9.640;2022-12-24T02:50:26;6.72;;;2.30;;
57778;SDS011;43608;49.486;9.640;2022-12-24T02:50:58;6.13;;;2.00;;
57778;SDS011;43608;49.486;9.640;2022-12-24T02:51:32;5.22;;;2.00;;
57778;SDS011;43608;49.486;9.640;2022-12-24T02:52:03;5.88;;;1.80;;
57778;SDS011;43608;49.486;9.640;2022-12-24T02:52:35;6.50;;;2.30;;
57778;SDS011;43608;49.486;9.640;2022-12-24T02:53:08;7.82;;;2.10;;
57778;SDS011;43608;49.486;9.640;2022-12-24T02:53:38;5.68;;;1.85;;
57778;SDS011;43608;49.486;9.640;2022-12-24T02:54:09;4.38;;;1.90;;
57778;SDS011;43608;49.486;9.640;2022-12-24T02:54:41;3.05;;;1.60;;
57778;SDS011;43608;49.486;9.640;2022-12-24T02:55:19;4.10;;;1.98;;
57778;SDS011;43608;49.486;9.640;2022-12-24T02:57:36;4.95;;;1.80;;
57778;SDS011;43608;49.486;9.640;2022-12-24T02:58:06;5.38;;;2.03;;
57778;SDS011;43608;49.486;9.640;2022-12-24T02:59:09;5.50;;;1.92;;
57778;SDS011;43608;49.486;9.640;2022-12-24T03:00:24;6.50;;;1.77;;
57778;SDS011;43608;49.486;9.640;2022-12-24T03:01:56;6.88;;;2.20;;
57778;SDS011;43608;49.486;9.640;2022-12-24T03:03:18;6.45;;;2.00;;
57778;SDS011;43608;49.486;9.640;2022-12-24T03:04:18;6.57;;;2.03;;
57778;SDS011;43608;49.486;9.640;2022-12-24T03:06:12;8.88;;;2.17;;
57778;SDS011;43608;49.486;9.640;2022-12-24T03:06:58;5.70;;;2.00;;
57778;SDS011;43608;49.486;9.640;2022-12-24T03:07:40;8.68;;;2.00;;
57778;SDS011;43608;49.486;9.640;2022-12-24T03:08:57;6.93;;;1.92;;
57778;SDS011;43608;49.486;9.640;2022-12-24T03:11:14;7.60;;;1.95;;
57778;SDS011;43608;49.486;9.640;2022-12-24T03:11:34;3.88;;;1.73;;
57778;SDS011;43608;49.486;9.640;2022-12-24T03:12:11;4.63;;;2.00;;
57778;SDS011;43608;49.486;9.640;2022-12-24T03:12:50;5.40;;;2.00;;
57778;SDS011;43608;49.486;9.640;2022-12-24T03:13:25;4.93;;;2.00;;
57778;SDS011;43608;49.486;9.640;2022-12-24T03:13:57;4.55;;;1.90;;
57778;SDS011;43608;49.486;9.640;2022-12-24T03:14:29;5.97;;;1.83;;
57778;SDS011;43608;49.486;9.640;2022-12-24T03:15:01;4.53;;;1.95;;
57778;SDS011;43608;49.486;9.640;2022-12-24T03:15:34;6.60;;;1.85;;
57778;SDS011;43608;49.486;9.640;2022-12-24T03:16:07;4.15;;;1.75;;
57778;SDS011;43608;49.486;9.640;2022-12-24T03:16:41;3.83;;;1.70;;
57778;SDS011;43608;49.486;9.640;2022-12-24T03:17:12;4.55;;;1.70;;
57778;SDS011;43608;49.486;9.640;2022-12-24T03:17:45;4.30;;;1.80;;
57778;SDS011;43608;49.486;9.640;2022-12-24T03:18:19;4.85;;;2.20;;
57778;SDS011;43608;49.486;9.640;2022-12-24T03:18:53;5.57;;;1.98;;
57778;SDS011;43608;49.486;9.640;2022-12-24T03:19:26;5.20;;;2.00;;
57778;SDS011;43608;49.486;9.640;2022-12-24T03:19:57;4.75;;;1.90;;
57778;SDS011;43608;49.486;9.640;2022-12-24T03:20:35;4.72;;;2.00;;
57778;SDS011;43608;49.486;9.640;2022-12-24T03:21:10;8.27;;;2.30;;
57778;SDS011;43608;49.486;9.640;2022-12-24T03:21:43;7.13;;;2.00;;
57778;SDS011;43608;49.486;9.640;2022-12-24T03:22:16;7.07;;;2.15;;
57778;SDS011;43608;49.486;9.640;2022-12-24T03:22:47;5.15;;;2.10;;
57778;SDS011;43608;49.486;9.640;2022-12-24T03:23:18;5.07;;;2.00;;
57778;SDS011;43608;49.486;9.640;2022-12-24T03:23:48;4.28;;;1.88;;
57778;SDS011;43608;49.486;9.640;2022-12-24T03:24:18;6.00;;;2.05;;
57778;SDS011;43608;49.486;9.640;2022-12-24T03:24:49;5.85;;;1.83;;
57778;SDS011;43608;49.486;9.640;2022-12-24T03:25:19;7.07;;;2.22;;
57778;SDS011;43608;49.486;9.640;2022-12-24T03:25:54;4.15;;;1.75;;
57778;SDS011;43608;49.486;9.640;2022-12-24T03:26:24;5.30;;;1.80;;
57778;SDS011;43608;49.486;9.640;2022-12-24T03:26:58;4.57;;;1.90;;
57778;SDS011;43608;49.486;9.640;2022-12-24T03:27:29;5.60;;;1.73;;
57778;SDS011;43608;49.486;9.640;2022-12-24T03:28:02;4.43;;;1.85;;
57778;SDS011;43608;49.486;9.640;2022-12-24T03:28:36;6.20;;;1.95;;
57778;SDS011;43608;49.486;9.640;2022-12-24T03:29:08;7.47;;;2.15;;
57778;SDS011;43608;49.486;9.640;2022-12-24T03:29:39;4.82;;;1.75;;
57778;SDS011;43608;49.486;9.640;2022-12-24T03:30:11;5.82;;;1.90;;
57778;SDS011;43608;49.486;9.640;2022-12-24T03:30:44;6.78;;;1.98;;
57778;SDS011;43608;49.486;9.640;2022-12-24T03:31:17;5.18;;;1.98;;
57778;SDS011;43608;49.486;9.640;2022-12-24T03:31:49;5.18;;;2.15;;
57778;SDS011;43608;49.486;9.640;2022-12-24T03:32:27;3.92;;;1.88;;
57778;SDS011;43608;49.486;9.640;2022-12-24T03:32:59;5.75;;;2.10;;
57778;SDS011;43608;49.486;9.640;2022-12-24T03:33:30;5.00;;;1.60;;
57778;SDS011;43608;49.486;9.640;2022-12-24T03:34:01;5.00;;;1.80;;
57778;SDS011;43608;49.486;9.640;2022-12-24T03:34:31;5.70;;;1.95;;
57778;SDS011;43608;49.486;9.640;2022-12-24T03:35:02;3.30;;;1.65;;
57778;SDS011;43608;49.486;9.640;2022-12-24T03:35:33;3.95;;;1.70;;
57778;SDS011;43608;49.486;9.640;2022-12-24T03:36:04;5.90;;;2.08;;
57778;SDS011;43608;49.486;9.640;2022-12-24T03:36:35;4.05;;;1.70;;
57778;SDS011;43608;49.486;9.640;2022-12-24T03:37:06;5.05;;;1.80;;
57778;SDS011;43608;49.486;9.640;2022-12-24T03:37:36;3.67;;;1.60;;
57778;SDS011;43608;49.486;9.640;2022-12-24T03:38:07;4.13;;;1.85;;
57778;SDS011;43608;49.486;9.640;2022-12-24T03:38:37;3.35;;;1.55;;
57778;SDS011;43608;49.486;9.640;2022-12-24T03:39:08;4.75;;;1.73;;
57778;SDS011;43608;49.486;9.640;2022-12-24T03:39:39;3.63;;;1.75;;
57778;SDS011;43608;49.486;9.640;2022-12-24T03:40:09;4.20;;;1.50;;
57778;SDS011;43608;49.486;9.640;2022-12-24T03:40:40;3.00;;;1.60;;
57778;SDS011;43608;49.486;9.640;2022-12-24T03:41:10;3.80;;;1.70;;
57778;SDS011;43608;49.486;9.640;2022-12-24T03:41:41;3.97;;;1.77;;
57778;SDS011;43608;49.486;9.640;2022-12-24T03:42:11;3.78;;;1.77;;
57778;SDS011;43608;49.486;9.640;2022-12-24T03:42:41;5.95;;;2.03;;
57778;SDS011;43608;49.486;9.640;2022-12-24T03:43:12;5.95;;;1.95;;
57778;SDS011;43608;49.486;9.640;2022-12-24T03:43:42;7.03;;;2.33;;
57778;SDS011;43608;49.486;9.640;2022-12-24T03:44:13;5.57;;;1.92;;
57778;SDS011;43608;49.486;9.640;2022-12-24T03:44:43;7.20;;;2.13;;